sensor_id;sensor_type;location;lat;lon;timestamp;P1;durP1;ratioP1;P2;durP2;ratioP2
2940;SDS011;1480;51.456;6.670;2022-09-04T00:00:36;3.10;;;2.07;;
2940;SDS011;1480;51.456;6.670;2022-09-04T00:03:22;3.07;;;2.30;;
2940;SDS011;1480;51.456;6.670;2022-09-04T00:05:57;4.37;;;2.27;;
2940;SDS011;1480;51.456;6.670;2022-09-04T00:08:35;3.30;;;2.77;;
2940;SDS011;1480;51.456;6.670;2022-09-04T00:11:12;4.53;;;3.13;;
2940;SDS011;1480;51.456;6.670;2022-09-04T00:13:51;2.90;;;2.50;;
2940;SDS011;1480;51.456;6.670;2022-09-04T00:16:23;4.17;;;2.03;;
2940;SDS011;1480;51.456;6.670;2022-09-04T00:18:56;2.20;;;1.90;;
2940;SDS011;1480;51.456;6.670;2022-09-04T00:21:29;2.70;;;2.30;;
2940;SDS011;1480;51.456;6.670;2022-09-04T00:24:01;3.00;;;2.23;;
2940;SDS011;1480;51.456;6.670;2022-09-04T00:26:37;2.87;;;2.00;;
2940;SDS011;1480;51.456;6.670;2022-09-04T00:29:11;3.70;;;2.07;;
2940;SDS011;1480;51.456;6.670;2022-09-04T00:31:46;2.80;;;2.50;;
2940;SDS011;1480;51.456;6.670;2022-09-04T00:34:22;3.77;;;2.73;;
2940;SDS011;1480;51.456;6.670;2022-09-04T00:37:02;2.33;;;2.10;;
2940;SDS011;1480;51.456;6.670;2022-09-04T00:39:32;2.57;;;2.30;;
2940;SDS011;1480;51.456;6.670;2022-09-04T00:42:07;2.90;;;2.50;;
2940;SDS011;1480;51.456;6.670;2022-09-04T00:44:56;2.37;;;2.17;;
2940;SDS011;1480;51.456;6.670;2022-09-04T00:47:36;2.27;;;1.83;;
2940;SDS011;1480;51.456;6.670;2022-09-04T00:50:33;2.77;;;1.90;;
2940;SDS011;1480;51.456;6.670;2022-09-04T00:53:26;4.03;;;2.73;;
2940;SDS011;1480;51.456;6.670;2022-09-04T00:56:08;2.73;;;2.10;;
2940;SDS011;1480;51.456;6.670;2022-09-04T00:58:48;3.00;;;2.03;;
2940;SDS011;1480;51.456;6.670;2022-09-04T01:01:23;2.83;;;2.37;;
2940;SDS011;1480;51.456;6.670;2022-09-04T01:03:59;2.90;;;2.20;;
2940;SDS011;1480;51.456;6.670;2022-09-04T01:06:53;3.03;;;2.10;;
2940;SDS011;1480;51.456;6.670;2022-09-04T01:09:48;3.43;;;2.50;;
2940;SDS011;1480;51.456;6.670;2022-09-04T01:12:34;4.40;;;2.67;;
2940;SDS011;1480;51.456;6.670;2022-09-04T01:15:10;3.30;;;2.40;;
2940;SDS011;1480;51.456;6.670;2022-09-04T01:17:46;3.30;;;2.40;;
2940;SDS011;1480;51.456;6.670;2022-09-04T01:20:26;2.87;;;2.57;;
2940;SDS011;1480;51.456;6.670;2022-09-04T01:26:08;2.97;;;2.30;;
2940;SDS011;1480;51.456;6.670;2022-09-04T01:28:49;2.70;;;2.50;;
2940;SDS011;1480;51.456;6.670;2022-09-04T01:31:31;3.27;;;2.37;;
2940;SDS011;1480;51.456;6.670;2022-09-04T01:34:09;2.40;;;2.20;;
2940;SDS011;1480;51.456;6.670;2022-09-04T01:36:47;2.70;;;2.33;;
2940;SDS011;1480;51.456;6.670;2022-09-04T01:39:21;2.73;;;2.47;;
2940;SDS011;1480;51.456;6.670;2022-09-04T01:41:52;3.97;;;2.57;;
2940;SDS011;1480;51.456;6.670;2022-09-04T01:44:26;3.30;;;2.40;;
2940;SDS011;1480;51.456;6.670;2022-09-04T01:46:56;3.50;;;2.60;;
2940;SDS011;1480;51.456;6.670;2022-09-04T01:49:33;3.30;;;2.73;;
2940;SDS011;1480;51.456;6.670;2022-09-04T01:52:10;4.20;;;3.30;;
2940;SDS011;1480;51.456;6.670;2022-09-04T01:54:49;4.93;;;2.90;;
2940;SDS011;1480;51.456;6.670;2022-09-04T02:00:19;6.73;;;3.80;;
2940;SDS011;1480;51.456;6.670;2022-09-04T02:02:53;3.23;;;2.63;;
2940;SDS011;1480;51.456;6.670;2022-09-04T02:05:28;4.70;;;3.03;;
2940;SDS011;1480;51.456;6.670;2022-09-04T02:08:09;4.90;;;3.30;;
2940;SDS011;1480;51.456;6.670;2022-09-04T02:10:51;3.30;;;2.60;;
2940;SDS011;1480;51.456;6.670;2022-09-04T02:13:28;5.80;;;3.80;;
2940;SDS011;1480;51.456;6.670;2022-09-04T02:16:05;3.53;;;2.97;;
2940;SDS011;1480;51.456;6.670;2022-09-04T02:18:42;4.00;;;3.60;;
2940;SDS011;1480;51.456;6.670;2022-09-04T02:21:17;4.67;;;4.10;;
2940;SDS011;1480;51.456;6.670;2022-09-04T02:23:52;5.10;;;3.60;;
2940;SDS011;1480;51.456;6.670;2022-09-04T02:26:29;5.97;;;3.60;;
2940;SDS011;1480;51.456;6.670;2022-09-04T02:29:02;6.30;;;4.07;;
2940;SDS011;1480;51.456;6.670;2022-09-04T02:31:35;6.10;;;4.43;;
2940;SDS011;1480;51.456;6.670;2022-09-04T02:34:11;4.77;;;4.23;;
2940;SDS011;1480;51.456;6.670;2022-09-04T02:36:45;5.00;;;4.23;;
2940;SDS011;1480;51.456;6.670;2022-09-04T02:39:23;4.63;;;3.90;;
2940;SDS011;1480;51.456;6.670;2022-09-04T02:42:02;5.60;;;4.30;;
2940;SDS011;1480;51.456;6.670;2022-09-04T02:44:41;4.90;;;4.37;;
2940;SDS011;1480;51.456;6.670;2022-09-04T02:47:13;5.27;;;3.50;;
2940;SDS011;1480;51.456;6.670;2022-09-04T02:49:52;4.37;;;3.70;;
2940;SDS011;1480;51.456;6.670;2022-09-04T02:52:29;5.00;;;4.47;;
2940;SDS011;1480;51.456;6.670;2022-09-04T02:55:15;4.90;;;3.77;;
2940;SDS011;1480;51.456;6.670;2022-09-04T02:57:55;7.20;;;4.10;;
2940;SDS011;1480;51.456;6.670;2022-09-04T03:00:32;5.67;;;3.87;;
2940;SDS011;1480;51.456;6.670;2022-09-04T03:03:07;10.33;;;4.67;;
2940;SDS011;1480;51.456;6.670;2022-09-04T03:05:38;5.20;;;4.00;;
2940;SDS011;1480;51.456;6.670;2022-09-04T03:08:12;7.13;;;5.13;;
2940;SDS011;1480;51.456;6.670;2022-09-04T03:10:43;4.77;;;4.10;;
2940;SDS011;1480;51.456;6.670;2022-09-04T03:13:13;4.23;;;3.80;;
2940;SDS011;1480;51.456;6.670;2022-09-04T03:15:50;4.80;;;4.37;;
2940;SDS011;1480;51.456;6.670;2022-09-04T03:18:23;6.13;;;4.43;;
2940;SDS011;1480;51.456;6.670;2022-09-04T03:20:57;8.50;;;4.90;;
2940;SDS011;1480;51.456;6.670;2022-09-04T03:23:29;9.00;;;4.97;;
2940;SDS011;1480;51.456;6.670;2022-09-04T03:26:15;5.70;;;4.30;;
2940;SDS011;1480;51.456;6.670;2022-09-04T03:28:53;4.70;;;4.30;;
2940;SDS011;1480;51.456;6.670;2022-09-04T03:31:30;6.13;;;4.30;;
2940;SDS011;1480;51.456;6.670;2022-09-04T03:34:06;5.07;;;4.03;;
2940;SDS011;1480;51.456;6.670;2022-09-04T03:36:53;5.80;;;5.00;;
2940;SDS011;1480;51.456;6.670;2022-09-04T03:39:39;5.30;;;4.43;;
2940;SDS011;1480;51.456;6.670;2022-09-04T03:42:18;6.47;;;4.63;;
2940;SDS011;1480;51.456;6.670;2022-09-04T03:44:54;6.13;;;4.80;;
2940;SDS011;1480;51.456;6.670;2022-09-04T03:47:34;5.53;;;4.93;;
2940;SDS011;1480;51.456;6.670;2022-09-04T03:50:13;6.10;;;4.53;;
2940;SDS011;1480;51.456;6.670;2022-09-04T03:52:48;6.30;;;4.70;;
2940;SDS011;1480;51.456;6.670;2022-09-04T03:55:26;7.90;;;4.97;;
2940;SDS011;1480;51.456;6.670;2022-09-04T03:58:08;6.80;;;5.00;;
2940;SDS011;1480;51.456;6.670;2022-09-04T04:00:45;5.70;;;4.00;;
2940;SDS011;1480;51.456;6.670;2022-09-04T04:03:35;3.77;;;3.37;;
2940;SDS011;1480;51.456;6.670;2022-09-04T04:06:17;5.50;;;4.30;;
2940;SDS011;1480;51.456;6.670;2022-09-04T04:09:08;5.93;;;4.40;;
2940;SDS011;1480;51.456;6.670;2022-09-04T04:14:42;5.90;;;4.83;;
2940;SDS011;1480;51.456;6.670;2022-09-04T04:17:45;5.30;;;3.80;;
2940;SDS011;1480;51.456;6.670;2022-09-04T04:20:32;5.90;;;4.70;;
2940;SDS011;1480;51.456;6.670;2022-09-04T04:23:25;6.70;;;4.67;;
2940;SDS011;1480;51.456;6.670;2022-09-04T04:26:08;5.60;;;5.10;;
2940;SDS011;1480;51.456;6.670;2022-09-04T04:28:45;5.70;;;5.10;;
2940;SDS011;1480;51.456;6.670;2022-09-04T04:31:38;6.03;;;5.43;;
2940;SDS011;1480;51.456;6.670;2022-09-04T04:34:36;7.73;;;5.07;;
2940;SDS011;1480;51.456;6.670;2022-09-04T04:37:17;5.53;;;4.10;;
2940;SDS011;1480;51.456;6.670;2022-09-04T04:39:51;5.33;;;4.00;;
2940;SDS011;1480;51.456;6.670;2022-09-04T04:42:28;5.07;;;4.57;;
2940;SDS011;1480;51.456;6.670;2022-09-04T04:45:04;5.10;;;4.27;;
2940;SDS011;1480;51.456;6.670;2022-09-04T04:54:24;5.20;;;4.53;;
2940;SDS011;1480;51.456;6.670;2022-09-04T04:57:06;5.57;;;4.63;;
2940;SDS011;1480;51.456;6.670;2022-09-04T04:59:45;4.70;;;4.23;;
2940;SDS011;1480;51.456;6.670;2022-09-04T05:02:21;5.40;;;4.30;;
2940;SDS011;1480;51.456;6.670;2022-09-04T05:04:55;5.23;;;4.13;;
2940;SDS011;1480;51.456;6.670;2022-09-04T05:07:28;4.90;;;4.00;;
2940;SDS011;1480;51.456;6.670;2022-09-04T05:10:03;4.60;;;3.67;;
2940;SDS011;1480;51.456;6.670;2022-09-04T05:12:47;7.00;;;4.60;;
2940;SDS011;1480;51.456;6.670;2022-09-04T05:15:25;5.30;;;4.10;;
2940;SDS011;1480;51.456;6.670;2022-09-04T05:17:59;4.57;;;4.10;;
2940;SDS011;1480;51.456;6.670;2022-09-04T05:20:38;4.93;;;4.00;;
2940;SDS011;1480;51.456;6.670;2022-09-04T05:23:13;5.47;;;4.70;;
2940;SDS011;1480;51.456;6.670;2022-09-04T05:25:52;9.77;;;5.27;;
2940;SDS011;1480;51.456;6.670;2022-09-04T05:28:28;7.90;;;4.87;;
2940;SDS011;1480;51.456;6.670;2022-09-04T05:31:07;7.23;;;5.10;;
2940;SDS011;1480;51.456;6.670;2022-09-04T05:33:43;6.70;;;5.60;;
2940;SDS011;1480;51.456;6.670;2022-09-04T05:36:21;8.20;;;6.10;;
2940;SDS011;1480;51.456;6.670;2022-09-04T05:38:57;7.37;;;5.23;;
2940;SDS011;1480;51.456;6.670;2022-09-04T05:41:34;7.60;;;5.40;;
2940;SDS011;1480;51.456;6.670;2022-09-04T05:44:15;10.30;;;6.53;;
2940;SDS011;1480;51.456;6.670;2022-09-04T05:47:01;8.63;;;6.60;;
2940;SDS011;1480;51.456;6.670;2022-09-04T05:49:37;7.40;;;6.37;;
2940;SDS011;1480;51.456;6.670;2022-09-04T05:52:25;8.83;;;6.47;;
2940;SDS011;1480;51.456;6.670;2022-09-04T05:55:22;7.33;;;5.33;;
2940;SDS011;1480;51.456;6.670;2022-09-04T06:00:58;6.83;;;5.37;;
2940;SDS011;1480;51.456;6.670;2022-09-04T06:03:49;8.17;;;5.87;;
2940;SDS011;1480;51.456;6.670;2022-09-04T06:06:31;10.67;;;6.03;;
2940;SDS011;1480;51.456;6.670;2022-09-04T06:12:01;7.07;;;6.43;;
2940;SDS011;1480;51.456;6.670;2022-09-04T06:17:30;11.43;;;7.27;;
2940;SDS011;1480;51.456;6.670;2022-09-04T06:20:09;8.90;;;7.93;;
2940;SDS011;1480;51.456;6.670;2022-09-04T06:22:47;8.10;;;6.30;;
2940;SDS011;1480;51.456;6.670;2022-09-04T06:25:43;10.90;;;7.23;;
2940;SDS011;1480;51.456;6.670;2022-09-04T06:28:29;10.63;;;7.63;;
2940;SDS011;1480;51.456;6.670;2022-09-04T06:31:31;13.50;;;8.80;;
2940;SDS011;1480;51.456;6.670;2022-09-04T06:34:15;8.73;;;7.30;;
2940;SDS011;1480;51.456;6.670;2022-09-04T06:36:55;13.50;;;7.67;;
2940;SDS011;1480;51.456;6.670;2022-09-04T06:39:35;12.30;;;9.23;;
2940;SDS011;1480;51.456;6.670;2022-09-04T06:42:18;11.80;;;9.30;;
2940;SDS011;1480;51.456;6.670;2022-09-04T06:47:55;11.83;;;7.73;;
2940;SDS011;1480;51.456;6.670;2022-09-04T06:50:34;13.40;;;8.10;;
2940;SDS011;1480;51.456;6.670;2022-09-04T06:53:14;16.90;;;10.60;;
2940;SDS011;1480;51.456;6.670;2022-09-04T06:55:50;15.07;;;8.53;;
2940;SDS011;1480;51.456;6.670;2022-09-04T06:58:40;9.67;;;7.70;;
2940;SDS011;1480;51.456;6.670;2022-09-04T07:01:15;14.47;;;8.83;;
2940;SDS011;1480;51.456;6.670;2022-09-04T07:03:58;16.07;;;9.40;;
2940;SDS011;1480;51.456;6.670;2022-09-04T07:06:41;12.93;;;9.40;;
2940;SDS011;1480;51.456;6.670;2022-09-04T07:09:17;9.70;;;8.20;;
2940;SDS011;1480;51.456;6.670;2022-09-04T07:11:55;10.53;;;7.63;;
2940;SDS011;1480;51.456;6.670;2022-09-04T07:15:10;9.63;;;6.90;;
2940;SDS011;1480;51.456;6.670;2022-09-04T07:17:55;11.73;;;6.90;;
2940;SDS011;1480;51.456;6.670;2022-09-04T07:20:34;8.20;;;5.87;;
2940;SDS011;1480;51.456;6.670;2022-09-04T07:23:12;8.60;;;4.27;;
2940;SDS011;1480;51.456;6.670;2022-09-04T07:25:48;5.23;;;4.33;;
2940;SDS011;1480;51.456;6.670;2022-09-04T07:28:36;6.07;;;4.20;;
2940;SDS011;1480;51.456;6.670;2022-09-04T07:31:14;5.30;;;4.13;;
2940;SDS011;1480;51.456;6.670;2022-09-04T07:33:47;8.60;;;4.87;;
2940;SDS011;1480;51.456;6.670;2022-09-04T07:36:24;7.10;;;4.33;;
2940;SDS011;1480;51.456;6.670;2022-09-04T07:39:01;11.23;;;5.60;;
2940;SDS011;1480;51.456;6.670;2022-09-04T07:41:37;10.67;;;5.40;;
2940;SDS011;1480;51.456;6.670;2022-09-04T07:44:13;11.43;;;5.03;;
2940;SDS011;1480;51.456;6.670;2022-09-04T07:46:49;8.10;;;4.73;;
2940;SDS011;1480;51.456;6.670;2022-09-04T07:49:27;11.00;;;5.17;;
2940;SDS011;1480;51.456;6.670;2022-09-04T07:51:59;10.13;;;4.40;;
2940;SDS011;1480;51.456;6.670;2022-09-04T07:54:38;9.07;;;5.27;;
2940;SDS011;1480;51.456;6.670;2022-09-04T07:57:29;13.87;;;5.50;;
2940;SDS011;1480;51.456;6.670;2022-09-04T08:00:08;9.43;;;4.87;;
2940;SDS011;1480;51.456;6.670;2022-09-04T08:03:05;11.53;;;5.17;;
2940;SDS011;1480;51.456;6.670;2022-09-04T08:05:46;16.63;;;5.10;;
2940;SDS011;1480;51.456;6.670;2022-09-04T08:08:24;18.50;;;6.30;;
2940;SDS011;1480;51.456;6.670;2022-09-04T08:11:12;8.60;;;4.57;;
2940;SDS011;1480;51.456;6.670;2022-09-04T08:13:58;10.70;;;4.40;;
2940;SDS011;1480;51.456;6.670;2022-09-04T08:16:44;8.80;;;4.70;;
2940;SDS011;1480;51.456;6.670;2022-09-04T08:19:29;7.70;;;4.63;;
2940;SDS011;1480;51.456;6.670;2022-09-04T08:22:07;9.90;;;4.47;;
2940;SDS011;1480;51.456;6.670;2022-09-04T08:24:42;9.50;;;4.40;;
2940;SDS011;1480;51.456;6.670;2022-09-04T08:27:24;7.07;;;4.70;;
2940;SDS011;1480;51.456;6.670;2022-09-04T08:30:04;8.70;;;4.40;;
2940;SDS011;1480;51.456;6.670;2022-09-04T08:35:44;3.70;;;3.10;;
2940;SDS011;1480;51.456;6.670;2022-09-04T08:38:31;8.43;;;4.30;;
2940;SDS011;1480;51.456;6.670;2022-09-04T08:47:38;6.33;;;3.50;;
2940;SDS011;1480;51.456;6.670;2022-09-04T08:50:27;4.57;;;3.37;;
2940;SDS011;1480;51.456;6.670;2022-09-04T08:56:17;5.80;;;3.03;;
2940;SDS011;1480;51.456;6.670;2022-09-04T09:01:57;4.87;;;2.93;;
2940;SDS011;1480;51.456;6.670;2022-09-04T09:05:02;5.03;;;3.20;;
2940;SDS011;1480;51.456;6.670;2022-09-04T09:10:49;5.00;;;3.70;;
2940;SDS011;1480;51.456;6.670;2022-09-04T09:13:42;9.37;;;3.67;;
2940;SDS011;1480;51.456;6.670;2022-09-04T09:16:33;11.67;;;3.87;;
2940;SDS011;1480;51.456;6.670;2022-09-04T09:19:09;11.50;;;3.90;;
2940;SDS011;1480;51.456;6.670;2022-09-04T09:21:57;12.20;;;4.27;;
2940;SDS011;1480;51.456;6.670;2022-09-04T09:27:53;12.00;;;4.20;;
2940;SDS011;1480;51.456;6.670;2022-09-04T09:30:46;9.90;;;4.30;;
2940;SDS011;1480;51.456;6.670;2022-09-04T09:33:55;9.33;;;4.80;;
2940;SDS011;1480;51.456;6.670;2022-09-04T09:36:43;10.20;;;3.23;;
2940;SDS011;1480;51.456;6.670;2022-09-04T09:49:02;6.07;;;2.97;;
2940;SDS011;1480;51.456;6.670;2022-09-04T09:52:06;7.93;;;3.53;;
2940;SDS011;1480;51.456;6.670;2022-09-04T09:54:58;8.93;;;3.47;;
2940;SDS011;1480;51.456;6.670;2022-09-04T10:00:49;5.43;;;3.00;;
2940;SDS011;1480;51.456;6.670;2022-09-04T10:06:32;6.33;;;3.67;;
2940;SDS011;1480;51.456;6.670;2022-09-04T10:09:32;4.80;;;2.90;;
2940;SDS011;1480;51.456;6.670;2022-09-04T10:15:26;6.20;;;2.70;;
2940;SDS011;1480;51.456;6.670;2022-09-04T10:18:34;5.20;;;2.77;;
2940;SDS011;1480;51.456;6.670;2022-09-04T10:21:49;5.53;;;3.30;;
2940;SDS011;1480;51.456;6.670;2022-09-04T10:28:02;11.73;;;4.20;;
2940;SDS011;1480;51.456;6.670;2022-09-04T10:30:54;4.73;;;2.80;;
2940;SDS011;1480;51.456;6.670;2022-09-04T10:34:08;4.07;;;3.07;;
2940;SDS011;1480;51.456;6.670;2022-09-04T10:36:56;3.33;;;2.10;;
2940;SDS011;1480;51.456;6.670;2022-09-04T10:39:37;6.70;;;3.37;;
2940;SDS011;1480;51.456;6.670;2022-09-04T10:42:35;7.27;;;2.50;;
2940;SDS011;1480;51.456;6.670;2022-09-04T10:45:14;4.67;;;2.20;;
2940;SDS011;1480;51.456;6.670;2022-09-04T10:47:53;4.37;;;2.23;;
2940;SDS011;1480;51.456;6.670;2022-09-04T10:56:44;4.10;;;2.33;;
2940;SDS011;1480;51.456;6.670;2022-09-04T10:59:34;4.47;;;2.50;;
2940;SDS011;1480;51.456;6.670;2022-09-04T11:05:32;3.37;;;2.33;;
2940;SDS011;1480;51.456;6.670;2022-09-04T11:17:34;5.40;;;2.97;;
2940;SDS011;1480;51.456;6.670;2022-09-04T11:23:50;3.13;;;2.33;;
2940;SDS011;1480;51.456;6.670;2022-09-04T11:29:44;3.47;;;2.00;;
2940;SDS011;1480;51.456;6.670;2022-09-04T11:32:28;3.40;;;2.37;;
2940;SDS011;1480;51.456;6.670;2022-09-04T11:35:24;4.37;;;2.27;;
2940;SDS011;1480;51.456;6.670;2022-09-04T11:38:13;3.73;;;2.00;;
2940;SDS011;1480;51.456;6.670;2022-09-04T11:46:52;4.37;;;2.10;;
2940;SDS011;1480;51.456;6.670;2022-09-04T11:52:15;4.23;;;1.70;;
2940;SDS011;1480;51.456;6.670;2022-09-04T11:58:21;6.20;;;1.80;;
2940;SDS011;1480;51.456;6.670;2022-09-04T12:01:13;6.70;;;2.40;;
2940;SDS011;1480;51.456;6.670;2022-09-04T12:07:01;4.60;;;1.80;;
2940;SDS011;1480;51.456;6.670;2022-09-04T12:10:05;3.13;;;1.90;;
2940;SDS011;1480;51.456;6.670;2022-09-04T12:16:10;3.80;;;1.80;;
2940;SDS011;1480;51.456;6.670;2022-09-04T12:19:05;3.20;;;1.70;;
2940;SDS011;1480;51.456;6.670;2022-09-04T12:21:52;2.80;;;1.80;;
2940;SDS011;1480;51.456;6.670;2022-09-04T12:25:03;3.20;;;1.93;;
2940;SDS011;1480;51.456;6.670;2022-09-04T12:27:55;2.73;;;1.70;;
2940;SDS011;1480;51.456;6.670;2022-09-04T12:30:44;2.10;;;1.23;;
2940;SDS011;1480;51.456;6.670;2022-09-04T12:39:44;2.30;;;1.50;;
2940;SDS011;1480;51.456;6.670;2022-09-04T12:42:43;4.63;;;2.53;;
2940;SDS011;1480;51.456;6.670;2022-09-04T12:45:23;4.57;;;2.53;;
2940;SDS011;1480;51.456;6.670;2022-09-04T12:47:58;3.77;;;2.60;;
2940;SDS011;1480;51.456;6.670;2022-09-04T12:50:37;2.70;;;1.93;;
2940;SDS011;1480;51.456;6.670;2022-09-04T12:53:19;3.67;;;2.10;;
2940;SDS011;1480;51.456;6.670;2022-09-04T12:56:00;2.43;;;1.43;;
2940;SDS011;1480;51.456;6.670;2022-09-04T12:58:36;2.40;;;1.50;;
2940;SDS011;1480;51.456;6.670;2022-09-04T13:01:15;2.60;;;1.57;;
2940;SDS011;1480;51.456;6.670;2022-09-04T13:03:58;4.23;;;1.87;;
2940;SDS011;1480;51.456;6.670;2022-09-04T13:06:38;3.70;;;1.50;;
2940;SDS011;1480;51.456;6.670;2022-09-04T13:09:16;6.20;;;1.50;;
2940;SDS011;1480;51.456;6.670;2022-09-04T13:11:53;2.23;;;1.63;;
2940;SDS011;1480;51.456;6.670;2022-09-04T13:14:39;2.83;;;2.07;;
2940;SDS011;1480;51.456;6.670;2022-09-04T13:17:23;2.47;;;1.20;;
2940;SDS011;1480;51.456;6.670;2022-09-04T13:19:59;3.00;;;1.50;;
2940;SDS011;1480;51.456;6.670;2022-09-04T13:22:51;2.57;;;1.50;;
2940;SDS011;1480;51.456;6.670;2022-09-04T13:25:34;2.50;;;1.70;;
2940;SDS011;1480;51.456;6.670;2022-09-04T13:28:12;2.70;;;1.70;;
2940;SDS011;1480;51.456;6.670;2022-09-04T13:30:55;2.63;;;1.33;;
2940;SDS011;1480;51.456;6.670;2022-09-04T13:33:40;2.37;;;1.30;;
2940;SDS011;1480;51.456;6.670;2022-09-04T13:36:21;2.47;;;1.27;;
2940;SDS011;1480;51.456;6.670;2022-09-04T13:42:12;1.97;;;1.40;;
2940;SDS011;1480;51.456;6.670;2022-09-04T13:44:55;3.23;;;1.43;;
2940;SDS011;1480;51.456;6.670;2022-09-04T13:47:31;2.13;;;1.20;;
2940;SDS011;1480;51.456;6.670;2022-09-04T13:50:03;3.20;;;1.33;;
2940;SDS011;1480;51.456;6.670;2022-09-04T13:52:37;2.47;;;1.40;;
2940;SDS011;1480;51.456;6.670;2022-09-04T13:55:11;3.30;;;1.27;;
2940;SDS011;1480;51.456;6.670;2022-09-04T13:57:45;1.80;;;1.30;;
2940;SDS011;1480;51.456;6.670;2022-09-04T14:00:18;5.43;;;1.23;;
2940;SDS011;1480;51.456;6.670;2022-09-04T14:02:45;2.33;;;1.10;;
2940;SDS011;1480;51.456;6.670;2022-09-04T14:05:20;3.20;;;1.10;;
2940;SDS011;1480;51.456;6.670;2022-09-04T14:07:55;3.17;;;1.43;;
2940;SDS011;1480;51.456;6.670;2022-09-04T14:10:32;4.90;;;1.47;;
2940;SDS011;1480;51.456;6.670;2022-09-04T14:13:27;2.00;;;1.10;;
2940;SDS011;1480;51.456;6.670;2022-09-04T14:16:08;3.00;;;1.47;;
2940;SDS011;1480;51.456;6.670;2022-09-04T14:18:49;5.93;;;1.43;;
2940;SDS011;1480;51.456;6.670;2022-09-04T14:21:35;1.77;;;1.20;;
2940;SDS011;1480;51.456;6.670;2022-09-04T14:24:16;3.43;;;1.50;;
2940;SDS011;1480;51.456;6.670;2022-09-04T14:26:58;2.83;;;1.33;;
2940;SDS011;1480;51.456;6.670;2022-09-04T14:29:48;2.37;;;1.37;;
2940;SDS011;1480;51.456;6.670;2022-09-04T14:32:26;3.13;;;1.37;;
2940;SDS011;1480;51.456;6.670;2022-09-04T14:35:07;5.57;;;1.20;;
2940;SDS011;1480;51.456;6.670;2022-09-04T14:37:47;3.27;;;1.47;;
2940;SDS011;1480;51.456;6.670;2022-09-04T14:40:26;2.77;;;1.70;;
2940;SDS011;1480;51.456;6.670;2022-09-04T14:42:59;3.43;;;1.30;;
2940;SDS011;1480;51.456;6.670;2022-09-04T14:45:45;2.53;;;1.43;;
2940;SDS011;1480;51.456;6.670;2022-09-04T14:48:29;2.93;;;1.67;;
2940;SDS011;1480;51.456;6.670;2022-09-04T14:51:07;5.17;;;1.53;;
2940;SDS011;1480;51.456;6.670;2022-09-04T14:53:39;2.20;;;1.53;;
2940;SDS011;1480;51.456;6.670;2022-09-04T14:56:21;3.23;;;1.47;;
2940;SDS011;1480;51.456;6.670;2022-09-04T14:58:53;3.10;;;1.60;;
2940;SDS011;1480;51.456;6.670;2022-09-04T15:01:28;3.53;;;1.80;;
2940;SDS011;1480;51.456;6.670;2022-09-04T15:04:00;2.83;;;1.60;;
2940;SDS011;1480;51.456;6.670;2022-09-04T15:06:33;3.03;;;1.60;;
2940;SDS011;1480;51.456;6.670;2022-09-04T15:09:15;3.40;;;1.60;;
2940;SDS011;1480;51.456;6.670;2022-09-04T15:11:48;2.87;;;1.80;;
2940;SDS011;1480;51.456;6.670;2022-09-04T15:14:22;6.73;;;1.60;;
2940;SDS011;1480;51.456;6.670;2022-09-04T15:16:59;2.50;;;1.50;;
2940;SDS011;1480;51.456;6.670;2022-09-04T15:19:33;2.50;;;1.57;;
2940;SDS011;1480;51.456;6.670;2022-09-04T15:22:11;2.97;;;1.70;;
2940;SDS011;1480;51.456;6.670;2022-09-04T15:24:48;4.97;;;1.50;;
2940;SDS011;1480;51.456;6.670;2022-09-04T15:27:21;2.37;;;1.60;;
2940;SDS011;1480;51.456;6.670;2022-09-04T15:29:59;4.10;;;3.50;;
2940;SDS011;1480;51.456;6.670;2022-09-04T15:32:31;2.93;;;1.70;;
2940;SDS011;1480;51.456;6.670;2022-09-04T15:35:10;5.00;;;1.60;;
2940;SDS011;1480;51.456;6.670;2022-09-04T15:37:41;8.03;;;2.07;;
2940;SDS011;1480;51.456;6.670;2022-09-04T15:40:12;2.50;;;1.30;;
2940;SDS011;1480;51.456;6.670;2022-09-04T15:42:51;3.10;;;1.40;;
2940;SDS011;1480;51.456;6.670;2022-09-04T15:45:23;2.20;;;1.50;;
2940;SDS011;1480;51.456;6.670;2022-09-04T15:48:14;5.20;;;1.67;;
2940;SDS011;1480;51.456;6.670;2022-09-04T15:51:03;3.40;;;1.40;;
2940;SDS011;1480;51.456;6.670;2022-09-04T15:53:44;4.73;;;1.60;;
2940;SDS011;1480;51.456;6.670;2022-09-04T15:56:26;2.60;;;1.53;;
2940;SDS011;1480;51.456;6.670;2022-09-04T15:59:00;2.03;;;1.50;;
2940;SDS011;1480;51.456;6.670;2022-09-04T16:01:39;3.27;;;1.53;;
2940;SDS011;1480;51.456;6.670;2022-09-04T16:04:15;3.90;;;1.83;;
2940;SDS011;1480;51.456;6.670;2022-09-04T16:06:51;3.40;;;1.53;;
2940;SDS011;1480;51.456;6.670;2022-09-04T16:09:22;2.20;;;1.50;;
2940;SDS011;1480;51.456;6.670;2022-09-04T16:11:56;2.30;;;1.50;;
2940;SDS011;1480;51.456;6.670;2022-09-04T16:14:31;2.47;;;1.73;;
2940;SDS011;1480;51.456;6.670;2022-09-04T16:17:05;3.00;;;1.40;;
2940;SDS011;1480;51.456;6.670;2022-09-04T16:19:40;3.70;;;1.60;;
2940;SDS011;1480;51.456;6.670;2022-09-04T16:22:16;3.70;;;1.53;;
2940;SDS011;1480;51.456;6.670;2022-09-04T16:24:52;3.60;;;2.23;;
2940;SDS011;1480;51.456;6.670;2022-09-04T16:27:24;6.00;;;2.00;;
2940;SDS011;1480;51.456;6.670;2022-09-04T16:29:53;3.73;;;1.70;;
2940;SDS011;1480;51.456;6.670;2022-09-04T16:32:25;3.40;;;1.90;;
2940;SDS011;1480;51.456;6.670;2022-09-04T16:34:56;2.87;;;1.90;;
2940;SDS011;1480;51.456;6.670;2022-09-04T16:37:28;3.10;;;2.00;;
2940;SDS011;1480;51.456;6.670;2022-09-04T16:40:03;2.33;;;1.30;;
2940;SDS011;1480;51.456;6.670;2022-09-04T16:42:40;2.73;;;1.83;;
2940;SDS011;1480;51.456;6.670;2022-09-04T16:45:10;2.83;;;1.73;;
2940;SDS011;1480;51.456;6.670;2022-09-04T16:47:42;2.60;;;1.70;;
2940;SDS011;1480;51.456;6.670;2022-09-04T16:50:19;2.13;;;1.47;;
2940;SDS011;1480;51.456;6.670;2022-09-04T16:55:39;2.70;;;1.60;;
2940;SDS011;1480;51.456;6.670;2022-09-04T16:58:35;5.93;;;1.77;;
2940;SDS011;1480;51.456;6.670;2022-09-04T17:01:05;3.20;;;2.10;;
2940;SDS011;1480;51.456;6.670;2022-09-04T17:03:40;3.60;;;1.73;;
2940;SDS011;1480;51.456;6.670;2022-09-04T17:06:18;2.47;;;1.60;;
2940;SDS011;1480;51.456;6.670;2022-09-04T17:08:54;2.77;;;1.60;;
2940;SDS011;1480;51.456;6.670;2022-09-04T17:11:29;2.13;;;1.53;;
2940;SDS011;1480;51.456;6.670;2022-09-04T17:14:04;5.80;;;2.10;;
2940;SDS011;1480;51.456;6.670;2022-09-04T17:16:47;4.70;;;1.80;;
2940;SDS011;1480;51.456;6.670;2022-09-04T17:19:18;2.87;;;1.37;;
2940;SDS011;1480;51.456;6.670;2022-09-04T17:22:02;3.23;;;1.60;;
2940;SDS011;1480;51.456;6.670;2022-09-04T17:24:53;2.20;;;1.40;;
2940;SDS011;1480;51.456;6.670;2022-09-04T17:27:24;2.27;;;1.70;;
2940;SDS011;1480;51.456;6.670;2022-09-04T17:29:57;4.80;;;1.60;;
2940;SDS011;1480;51.456;6.670;2022-09-04T17:32:27;4.40;;;1.40;;
2940;SDS011;1480;51.456;6.670;2022-09-04T17:35:07;3.50;;;2.27;;
2940;SDS011;1480;51.456;6.670;2022-09-04T17:37:44;2.43;;;1.73;;
2940;SDS011;1480;51.456;6.670;2022-09-04T17:40:17;4.80;;;1.97;;
2940;SDS011;1480;51.456;6.670;2022-09-04T17:42:53;2.87;;;1.63;;
2940;SDS011;1480;51.456;6.670;2022-09-04T17:45:33;4.07;;;2.43;;
2940;SDS011;1480;51.456;6.670;2022-09-04T17:48:13;4.50;;;2.07;;
2940;SDS011;1480;51.456;6.670;2022-09-04T17:50:48;4.03;;;1.80;;
2940;SDS011;1480;51.456;6.670;2022-09-04T17:53:23;3.83;;;1.93;;
2940;SDS011;1480;51.456;6.670;2022-09-04T17:55:53;2.80;;;2.20;;
2940;SDS011;1480;51.456;6.670;2022-09-04T17:58:25;3.37;;;1.87;;
2940;SDS011;1480;51.456;6.670;2022-09-04T18:00:58;2.30;;;1.90;;
2940;SDS011;1480;51.456;6.670;2022-09-04T18:03:33;3.20;;;2.17;;
2940;SDS011;1480;51.456;6.670;2022-09-04T18:06:10;5.63;;;2.20;;
2940;SDS011;1480;51.456;6.670;2022-09-04T18:08:43;2.83;;;1.60;;
2940;SDS011;1480;51.456;6.670;2022-09-04T18:11:19;2.10;;;1.60;;
2940;SDS011;1480;51.456;6.670;2022-09-04T18:13:52;4.13;;;1.70;;
2940;SDS011;1480;51.456;6.670;2022-09-04T18:19:19;3.53;;;1.87;;
2940;SDS011;1480;51.456;6.670;2022-09-04T18:21:52;3.03;;;1.83;;
2940;SDS011;1480;51.456;6.670;2022-09-04T18:24:24;2.43;;;1.83;;
2940;SDS011;1480;51.456;6.670;2022-09-04T18:26:55;6.40;;;2.30;;
2940;SDS011;1480;51.456;6.670;2022-09-04T18:29:32;3.40;;;1.90;;
2940;SDS011;1480;51.456;6.670;2022-09-04T18:32:09;3.23;;;2.43;;
2940;SDS011;1480;51.456;6.670;2022-09-04T18:34:45;2.10;;;1.67;;
2940;SDS011;1480;51.456;6.670;2022-09-04T18:37:18;2.90;;;1.83;;
2940;SDS011;1480;51.456;6.670;2022-09-04T18:39:57;4.37;;;2.00;;
2940;SDS011;1480;51.456;6.670;2022-09-04T18:42:30;4.03;;;2.10;;
2940;SDS011;1480;51.456;6.670;2022-09-04T18:45:09;4.33;;;2.37;;